< < Back
Terminal Aerodrome Forecast


Current Version              Previous Versions:   1  2  3  4  5  6  7  8  9  

Terminal Aerodrome Forecast

748
FTUS42 KGSP 212100 AAA
TAFAND
TAF AMD
KAND 212104Z 2121/2218 27010KT P6SM FEW070
     FM220000 30008KT P6SM SKC
     FM220600 34004KT P6SM SKC=

Latest METAR

903
SAUS70 KWBC 220900 RRD
MTRAND
METAR KAND 220856Z AUTO 00000KT 10SM CLR 06/04 A3001 RMK AO2 SLP157
T00560044 53001


USA.gov is the U.S. government's official web portal to all federal, state and local government web resources and services.